Arthur, IA

3:01 PM CDT on August 21, 2014 (GMT -0500)
Oxendales Arthur, IA | Change Station
CLOSE
Current Station
Personal Weather Station
Location: Arthur, IA
Elevation: 1496 ft
Nearby Weather Stations

Elev 1496 ft 42.28 °N, 95.36 °W | Updated 1 second ago

Partly Cloudy
Partly Cloudy
85.5 °F
Feels Like 94 °F
N
9.2
Wind Variable Wind from SW
Gusts 10.7 mph

Today
High -- | Low -- °F
--% Chance of Precip.
Yesterday
High -- | Low -- °F
Precip. -- in
6:34 AM 8:13 PM
Waning Crescent, 12% visible
Pressure 29.84 in
Visibility 10.0 miles
Clouds Few 2900 ft
Heat Index 94 °F
Dew Point 75 °F
Humidity 71%
Rainfall 0.02 in
Snow Depth Not available.
UV 8 out of 12
Pollen 5.30 out of 12
Air Quality Not available.
Flu Activity Not available.
METAR KSLB 211955Z AUTO 21009G16KT 10SM FEW029 29/25 A2984 RMK AO2

More Conditions Fewer Conditions

Pressure 29.84 in
Visibility 10.0 miles
Clouds Few 2900 ft
Heat Index 94 °F
Dew Point 75 °F
Humidity 71%
Rainfall 0.02 in
Snow Depth Not available.
UV 8 out of 12
Pollen 5.30 out of 12
Air Quality Not available.
Flu Activity Not available.
METAR KSLB 211955Z AUTO 21009G16KT 10SM FEW029 29/25 A2984 RMK AO2

More Conditions Fewer Conditions

10-Day Weather Forecast

Almanac

Astronomy

Aug. 21, 2014 Rise Set
Actual Time 6:34 AM CDT 8:13 PM CDT
Civil Twilight 6:05 AM CDT 8:42 PM CDT
Nautical Twilight 5:29 AM CDT 9:18 PM CDT
Astronomical Twilight 4:50 AM CDT 9:57 PM CDT
Moon 3:04 AM CDT 5:44 PM CDT
Length of Visible Light 14h 37m
Length of Day
13h 38m
Tomorrow will be 2m 39s shorter.
Waning Crescent, 12% of the Moon is Illuminated
Today
Waning Crescent
Aug 25
New
Sep 2
First Quarter
Sep 8
Full
Sep 15
Last Quarter

Today's Extremes

State Highs State Lows

Community

WunderPhotos

Upload Photos

1,746,011 photos uploaded!

WunderBlogs® & News

Nearby

Snow Depth

Station Depth Elevation
No new snow has been reported.

Earthquake Activity

City Distance Mag. Time & Date
No recent earthquake activity has been reported nearby.
Minimum magnitude displayed is 2.5.

Coastal Water Temperatures

Place Temperature
No Stations Reporting

Nearby Weather Stations